Time;durP1;ratioP1;P1;durP2;ratioP2;P2;SDS_P1;SDS_P2;PMS_P1;PMS_P2;Temp;Humidity;BMP_temperature;BMP_pressure;BME280_temperature;BME280_humidity;BME280_pressure;Samples;Min_cycle;Max_cycle;Signal;HPM_P1;HPM_P2
2020/12/13 00:01:34;;;;;;;71.17;30.17;;;9.30;94.50;;;;;;5052671;28;20378;-74
2020/12/13 00:04:00;;;;;;;57.83;29.10;;;9.30;95.10;;;;;;5050549;28;20412;-74
2020/12/13 00:06:25;;;;;;;61.20;28.10;;;9.20;95.90;;;;;;5051873;28;20385;-76
2020/12/13 00:08:51;;;;;;;60.67;27.30;;;9.20;95.90;;;;;;5054245;28;20392;-74
2020/12/13 00:11:17;;;;;;;57.83;27.57;;;9.10;97.00;;;;;;5052620;28;20538;-74
2020/12/13 00:13:43;;;;;;;58.95;27.88;;;9.20;96.80;;;;;;5032261;28;20426;-72
2020/12/13 00:16:09;;;;;;;62.67;28.20;;;9.20;96.70;;;;;;5032202;28;20382;-75
2020/12/13 00:18:35;;;;;;;61.95;27.85;;;9.10;97.80;;;;;;5048763;28;20405;-71
2020/12/13 00:21:01;;;;;;;51.38;25.60;;;9.10;97.70;;;;;;5052013;28;20396;-73
2020/12/13 00:23:27;;;;;;;51.50;24.33;;;9.10;98.20;;;;;;5051798;28;20386;-74
2020/12/13 00:25:52;;;;;;;58.80;25.13;;;9.30;97.30;;;;;;5051911;28;20381;-74
2020/12/13 00:28:18;;;;;;;61.07;26.53;;;9.20;96.60;;;;;;5035520;28;20518;-74
2020/12/13 00:30:43;;;;;;;57.30;27.03;;;9.30;95.90;;;;;;5038839;28;20869;-74
2020/12/13 00:33:09;;;;;;;57.63;26.48;;;9.30;95.70;;;;;;5051584;28;20425;-74
2020/12/13 00:35:34;;;;;;;59.85;27.00;;;9.20;96.40;;;;;;5046050;28;20390;-75
2020/12/13 00:38:00;;;;;;;62.50;27.27;;;9.40;96.50;;;;;;5031272;28;20391;-73
2020/12/13 00:40:26;;;;;;;58.45;27.27;;;9.30;96.20;;;;;;5045925;28;20385;-73
2020/12/13 00:42:51;;;;;;;59.25;27.38;;;9.30;96.30;;;;;;5035476;28;20465;-73
2020/12/13 00:45:17;;;;;;;56.53;26.97;;;9.40;96.00;;;;;;5046101;28;20421;-74
2020/12/13 00:47:44;;;;;;;59.37;27.80;;;9.30;96.40;;;;;;5050753;28;20476;-74
2020/12/13 00:50:09;;;;;;;63.40;28.15;;;9.30;97.30;;;;;;5045338;28;20419;-72
2020/12/13 00:52:39;;;;;;;60.28;30.00;;;9.40;95.20;;;;;;5036422;28;20386;-72
2020/12/13 00:55:05;;;;;;;60.67;29.88;;;9.40;95.00;;;;;;5050533;28;20491;-73
2020/12/13 00:57:31;;;;;;;61.33;29.02;;;9.40;94.50;;;;;;5048112;28;20414;-74
2020/12/13 00:59:57;;;;;;;61.90;29.55;;;9.40;95.10;;;;;;5048202;28;20382;-72
2020/12/13 01:02:23;;;;;;;62.92;29.45;;;9.40;94.90;;;;;;5050524;28;20420;-74
2020/12/13 01:04:48;;;;;;;68.87;29.97;;;9.40;95.10;;;;;;5046208;28;20391;-74
2020/12/13 01:07:14;;;;;;;61.20;29.40;;;9.30;95.20;;;;;;5029040;28;20391;-74
2020/12/13 01:09:40;;;;;;;66.38;31.00;;;9.50;95.00;;;;;;5030774;28;20442;-71
2020/12/13 01:12:06;;;;;;;60.15;29.67;;;9.50;93.80;;;;;;5040413;28;20886;-73
2020/12/13 01:14:31;;;;;;;68.50;32.05;;;9.40;93.80;;;;;;5050097;28;20859;-74
2020/12/13 01:16:57;;;;;;;70.20;31.27;;;9.30;94.90;;;;;;5050310;28;20382;-74
2020/12/13 01:19:23;;;;;;;68.85;31.40;;;9.30;96.20;;;;;;5043058;28;20446;-73
2020/12/13 01:21:48;;;;;;;71.15;30.58;;;9.40;96.10;;;;;;5029798;28;20387;-74
2020/12/13 01:24:17;;;;;;;66.40;32.10;;;9.50;94.20;;;;;;5028959;28;20884;-73
2020/12/13 01:26:42;;;;;;;70.80;31.80;;;9.40;94.00;;;;;;5029292;28;20403;-74
2020/12/13 01:29:08;;;;;;;71.82;31.70;;;9.40;94.60;;;;;;5029985;28;20868;-74
2020/12/13 01:31:34;;;;;;;71.32;32.63;;;9.40;95.00;;;;;;5030156;28;20432;-75
2020/12/13 01:33:59;;;;;;;70.10;33.10;;;9.40;95.40;;;;;;5030031;28;20466;-74
2020/12/13 01:36:25;;;;;;;75.03;34.30;;;9.30;95.40;;;;;;5042933;28;20789;-73
2020/12/13 01:38:51;;;;;;;70.60;33.70;;;9.30;96.40;;;;;;5049203;28;20870;-74
2020/12/13 01:41:17;;;;;;;71.47;34.22;;;9.20;97.00;;;;;;5049377;28;20574;-75
2020/12/13 01:44:01;;;;;;;79.43;35.50;;;9.30;97.00;;;;;;5048045;28;20878;-73
2020/12/13 01:46:27;;;;;;;76.95;35.00;;;9.30;97.10;;;;;;5049521;28;20398;-74
2020/12/13 01:49:01;;;;;;;76.72;34.55;;;9.30;97.20;;;;;;5048217;28;20420;-73
2020/12/13 01:54:04;;;;;;;71.88;33.15;;;9.50;95.20;;;;;;5033361;28;20422;-72
2020/12/13 01:56:32;;;;;;;78.75;35.53;;;9.40;94.00;;;;;;5029594;28;21101;-73
2020/12/13 01:59:01;;;;;;;72.13;35.17;;;9.40;93.70;;;;;;5037856;28;20410;-72
2020/12/13 02:01:28;;;;;;;74.10;34.80;;;9.50;93.80;;;;;;5049369;28;20389;-73
2020/12/13 02:03:58;;;;;;;77.93;35.00;;;9.50;93.60;;;;;;5045987;28;20399;-73
2020/12/13 02:06:28;;;;;;;75.90;34.50;;;9.50;93.20;;;;;;5028601;28;20403;-74
2020/12/13 02:08:54;;;;;;;72.38;34.95;;;9.50;94.00;;;;;;5029514;28;20442;-73
2020/12/13 02:11:19;;;;;;;76.68;35.60;;;9.60;91.40;;;;;;5029411;28;20934;-72
2020/12/13 02:13:49;;;;;;;77.07;35.85;;;9.50;91.60;;;;;;5029688;28;20460;-73
2020/12/13 02:16:15;;;;;;;82.80;36.23;;;9.50;92.60;;;;;;5029515;28;20486;-73
2020/12/13 02:18:42;;;;;;;79.93;36.70;;;9.50;93.90;;;;;;5036814;28;20402;-74
2020/12/13 02:21:10;;;;;;;79.90;36.57;;;9.40;94.00;;;;;;5049288;28;20447;-73
2020/12/13 02:23:39;;;;;;;74.43;35.80;;;9.50;94.10;;;;;;5037499;28;20395;-73
2020/12/13 02:26:10;;;;;;;81.13;36.90;;;9.40;93.20;;;;;;5029145;28;20395;-73
2020/12/13 02:28:36;;;;;;;75.07;35.65;;;9.30;94.40;;;;;;5029533;28;20399;-75
2020/12/13 02:31:03;;;;;;;77.03;35.73;;;9.40;94.70;;;;;;5031463;28;20459;-73
2020/12/13 02:33:29;;;;;;;78.35;35.85;;;9.30;94.90;;;;;;5030060;28;20386;-74
2020/12/13 02:35:55;;;;;;;83.87;38.50;;;9.40;94.40;;;;;;5035691;28;20390;-76
2020/12/13 02:38:21;;;;;;;74.97;37.10;;;9.30;95.10;;;;;;5038558;28;20442;-74
2020/12/13 02:40:46;;;;;;;73.90;36.70;;;9.40;93.90;;;;;;5052177;28;20531;-74
2020/12/13 02:43:12;;;;;;;79.63;35.90;;;9.50;93.00;;;;;;5035469;28;20470;-75
2020/12/13 02:45:37;;;;;;;73.20;35.10;;;9.50;92.10;;;;;;5035832;28;20383;-74
2020/12/13 02:48:03;;;;;;;79.40;35.85;;;9.40;92.50;;;;;;5036994;28;20681;-73
2020/12/13 02:50:31;;;;;;;78.65;37.95;;;9.40;93.30;;;;;;5036783;28;20414;-73
2020/12/13 02:52:57;;;;;;;77.65;36.35;;;9.50;92.30;;;;;;5035631;28;20402;-74
2020/12/13 02:55:23;;;;;;;77.80;37.28;;;9.50;91.80;;;;;;5034363;28;20779;-74
2020/12/13 02:57:48;;;;;;;78.20;37.77;;;9.40;92.90;;;;;;5035448;28;20382;-74
2020/12/13 03:00:14;;;;;;;80.37;38.33;;;9.50;93.60;;;;;;5047656;28;20419;-76
2020/12/13 03:02:39;;;;;;;71.67;36.60;;;9.50;92.30;;;;;;5055397;28;20411;-74
2020/12/13 03:05:05;;;;;;;72.10;37.03;;;9.50;92.00;;;;;;5055436;28;20383;-74
2020/12/13 03:07:30;;;;;;;73.20;35.63;;;9.40;92.00;;;;;;5055366;28;20389;-75
2020/12/13 03:09:56;;;;;;;71.73;36.10;;;9.40;92.50;;;;;;5043277;28;20418;-73
2020/12/13 03:12:25;;;;;;;69.95;36.63;;;9.40;93.00;;;;;;5049940;28;20476;-75
2020/12/13 03:14:53;;;;;;;74.18;36.33;;;9.40;93.50;;;;;;5055139;28;20409;-73
2020/12/13 03:17:19;;;;;;;71.30;36.20;;;9.40;92.00;;;;;;5055210;28;20392;-74
2020/12/13 03:19:45;;;;;;;70.07;35.33;;;9.50;92.50;;;;;;5042522;28;20411;-73
2020/12/13 03:22:10;;;;;;;71.50;37.00;;;9.40;91.70;;;;;;5035207;28;20422;-76
2020/12/13 03:24:36;;;;;;;72.70;37.17;;;9.40;94.20;;;;;;5053569;28;20397;-74
2020/12/13 03:27:02;;;;;;;66.60;35.67;;;9.40;93.70;;;;;;5054876;28;20388;-74
2020/12/13 03:29:27;;;;;;;73.23;37.83;;;9.30;93.90;;;;;;5047246;28;20407;-74
2020/12/13 03:31:53;;;;;;;73.67;36.33;;;9.30;93.80;;;;;;5037008;28;20391;-75
2020/12/13 03:34:18;;;;;;;65.50;34.73;;;9.30;93.90;;;;;;5038142;28;20391;-74
2020/12/13 03:36:44;;;;;;;73.77;37.67;;;9.30;93.90;;;;;;5057510;28;20735;-74
2020/12/13 03:39:09;;;;;;;61.93;34.13;;;9.30;94.50;;;;;;5048997;28;20398;-74
2020/12/13 03:41:35;;;;;;;66.87;34.87;;;9.30;94.10;;;;;;5035402;28;20385;-75
2020/12/13 03:44:00;;;;;;;59.70;33.50;;;9.30;94.30;;;;;;5035129;28;20864;-76
2020/12/13 03:46:26;;;;;;;65.70;34.20;;;9.40;93.30;;;;;;5035401;28;20438;-74
2020/12/13 03:48:52;;;;;;;68.13;34.38;;;9.40;93.80;;;;;;5049995;28;20397;-74
2020/12/13 03:51:17;;;;;;;60.30;32.05;;;9.30;93.10;;;;;;5031961;28;20411;-74
2020/12/13 03:53:43;;;;;;;61.50;32.22;;;9.40;92.40;;;;;;5031991;28;20379;-74
2020/12/13 03:56:08;;;;;;;60.10;32.58;;;9.40;93.10;;;;;;5031856;28;21087;-75
2020/12/13 03:58:34;;;;;;;59.28;32.15;;;9.50;91.30;;;;;;5047388;28;20870;-74
2020/12/13 04:00:59;;;;;;;58.83;31.35;;;9.50;91.80;;;;;;5031783;28;20804;-73
2020/12/13 04:03:25;;;;;;;60.22;31.13;;;9.50;90.80;;;;;;5031754;28;20745;-74
2020/12/13 04:05:50;;;;;;;57.27;31.50;;;9.40;91.70;;;;;;5031549;28;20430;-74
2020/12/13 04:08:16;;;;;;;58.27;31.67;;;9.40;92.10;;;;;;5031615;28;20398;-73
2020/12/13 04:10:41;;;;;;;61.67;32.70;;;9.40;92.80;;;;;;5031500;28;20492;-74
2020/12/13 04:13:07;;;;;;;62.83;31.27;;;9.30;93.60;;;;;;5031281;28;20795;-74
2020/12/13 04:15:32;;;;;;;58.27;29.97;;;9.40;93.10;;;;;;5031607;28;20907;-75
2020/12/13 04:17:58;;;;;;;57.40;30.70;;;9.50;91.70;;;;;;5031285;28;20399;-74
2020/12/13 04:20:23;;;;;;;58.83;30.60;;;9.50;90.90;;;;;;5033824;28;20408;-73
2020/12/13 04:22:49;;;;;;;62.93;31.70;;;9.50;91.50;;;;;;5051283;28;20435;-75
2020/12/13 04:25:15;;;;;;;65.97;32.10;;;9.40;92.90;;;;;;5051200;28;20393;-74
2020/12/13 04:27:40;;;;;;;59.35;31.92;;;9.40;92.50;;;;;;5046925;28;20435;-75
2020/12/13 04:30:06;;;;;;;66.70;32.17;;;9.40;92.90;;;;;;5030977;28;20943;-74
2020/12/13 04:32:32;;;;;;;59.65;30.88;;;9.40;92.90;;;;;;5031159;28;20422;-75
2020/12/13 04:34:58;;;;;;;58.75;31.55;;;9.50;92.10;;;;;;5030847;28;20415;-72
2020/12/13 04:37:23;;;;;;;58.72;31.02;;;9.50;90.80;;;;;;5031271;28;20390;-73
2020/12/13 04:39:53;;;;;;;56.95;31.52;;;9.40;92.20;;;;;;5039280;28;20398;-74
2020/12/13 04:42:23;;;;;;;59.22;31.35;;;9.40;91.20;;;;;;5051047;28;20456;-75
2020/12/13 04:44:49;;;;;;;56.95;30.63;;;9.40;91.70;;;;;;5050707;28;20475;-74
2020/12/13 04:47:17;;;;;;;54.53;31.42;;;9.40;90.70;;;;;;5051452;28;20858;-74
2020/12/13 04:49:46;;;;;;;55.33;30.20;;;9.50;90.30;;;;;;5047312;28;20963;-75
2020/12/13 04:52:13;;;;;;;58.58;31.42;;;9.50;90.60;;;;;;5050614;28;20436;-74
2020/12/13 04:54:47;;;;;;;58.55;29.20;;;9.40;90.70;;;;;;5050497;28;20377;-75
2020/12/13 04:57:13;;;;;;;57.85;30.98;;;9.40;90.90;;;;;;5050167;28;20385;-74
2020/12/13 04:59:40;;;;;;;54.85;29.63;;;9.50;90.30;;;;;;5041388;28;20399;-74
2020/12/13 05:02:06;;;;;;;56.03;29.67;;;9.40;90.80;;;;;;5038620;28;20404;-78
2020/12/13 05:04:32;;;;;;;58.70;30.60;;;9.40;90.80;;;;;;5051384;28;20399;-75
2020/12/13 05:06:58;;;;;;;55.22;30.17;;;9.40;90.90;;;;;;5053004;28;20431;-75
2020/12/13 05:09:24;;;;;;;58.97;30.25;;;9.40;90.20;;;;;;5048236;28;20796;-74
2020/12/13 05:11:50;;;;;;;51.92;28.52;;;9.40;90.40;;;;;;5033807;28;20395;-74
2020/12/13 05:14:15;;;;;;;49.30;27.88;;;9.40;90.70;;;;;;5043296;28;20905;-75
2020/12/13 05:16:41;;;;;;;50.25;27.45;;;9.40;90.90;;;;;;5052579;28;20526;-73
2020/12/13 05:19:07;;;;;;;48.35;26.85;;;9.40;89.70;;;;;;5048039;28;20753;-75
2020/12/13 05:21:35;;;;;;;52.83;28.30;;;9.30;90.80;;;;;;5032583;28;20387;-75
2020/12/13 05:24:07;;;;;;;49.50;27.05;;;9.30;92.20;;;;;;5032508;28;20379;-75
2020/12/13 05:26:33;;;;;;;47.70;26.70;;;9.30;92.80;;;;;;5046276;28;20412;-75
2020/12/13 05:29:02;;;;;;;49.33;26.65;;;9.40;91.20;;;;;;5049340;28;20403;-73
2020/12/13 05:31:30;;;;;;;49.20;26.98;;;9.30;91.10;;;;;;5029834;28;20483;-73
2020/12/13 05:34:05;;;;;;;47.90;25.63;;;9.20;93.50;;;;;;5029911;28;20511;-74
2020/12/13 05:36:35;;;;;;;44.33;24.38;;;9.30;92.70;;;;;;5030060;28;20389;-74
2020/12/13 05:39:00;;;;;;;47.33;25.90;;;9.30;91.70;;;;;;5034891;28;20425;-75
2020/12/13 05:41:35;;;;;;;43.50;25.10;;;9.30;91.30;;;;;;5049784;28;20441;-74
2020/12/13 05:51:46;;;;;;;39.67;22.55;;;9.30;91.10;;;;;;5049257;28;20388;-72
2020/12/13 05:56:59;;;;;;;38.95;23.30;;;9.30;91.20;;;;;;5048451;28;20389;-71
2020/12/13 05:59:27;;;;;;;39.40;21.85;;;9.40;90.70;;;;;;5033752;28;20478;-73
2020/12/13 06:01:54;;;;;;;37.42;22.48;;;9.40;90.30;;;;;;5030920;28;20473;-71
2020/12/13 06:04:30;;;;;;;35.60;21.85;;;9.40;90.60;;;;;;5030045;28;20379;-71
2020/12/13 06:06:59;;;;;;;38.25;21.30;;;9.30;91.10;;;;;;5029439;28;20375;-71
2020/12/13 06:09:44;;;;;;;35.40;21.65;;;9.30;92.10;;;;;;5027310;28;20455;-72
2020/12/13 06:12:11;;;;;;;34.63;21.77;;;9.30;92.80;;;;;;5029395;28;20757;-73
2020/12/13 06:14:39;;;;;;;32.30;19.73;;;9.20;93.20;;;;;;5029071;28;20395;-73
2020/12/13 06:17:05;;;;;;;29.35;18.27;;;9.20;92.90;;;;;;5029474;28;20386;-73
2020/12/13 06:19:33;;;;;;;31.15;19.42;;;9.20;92.30;;;;;;5029176;28;20406;-73
2020/12/13 06:22:03;;;;;;;30.65;19.20;;;9.20;92.70;;;;;;5030375;28;20395;-72
2020/12/13 06:24:30;;;;;;;33.17;19.02;;;9.20;93.50;;;;;;5029212;28;20450;-73
2020/12/13 06:26:56;;;;;;;32.30;19.70;;;9.20;92.60;;;;;;5046514;28;20397;-73
2020/12/13 06:29:23;;;;;;;34.25;20.50;;;9.20;92.40;;;;;;5034263;28;20893;-73
2020/12/13 06:31:50;;;;;;;35.22;22.17;;;9.20;91.90;;;;;;5029269;28;20737;-72
2020/12/13 06:34:16;;;;;;;38.15;22.70;;;9.20;92.70;;;;;;5028739;28;20397;-73
2020/12/13 06:36:42;;;;;;;40.00;25.00;;;9.20;92.70;;;;;;5029621;28;20600;-73
2020/12/13 06:39:16;;;;;;;38.40;24.27;;;9.20;91.10;;;;;;5039749;28;20429;-72
2020/12/13 06:41:47;;;;;;;42.88;26.00;;;9.20;91.10;;;;;;5039602;28;20442;-72
2020/12/13 06:44:13;;;;;;;44.80;24.92;;;9.20;90.90;;;;;;5028719;28;20853;-71
2020/12/13 06:46:41;;;;;;;40.10;23.90;;;9.20;91.40;;;;;;5028988;28;20387;-72
2020/12/13 06:49:12;;;;;;;38.47;23.85;;;9.20;91.30;;;;;;5034487;28;20389;-73
2020/12/13 06:51:39;;;;;;;39.05;24.40;;;9.20;89.00;;;;;;5048811;28;20416;-73
2020/12/13 06:54:16;;;;;;;41.70;25.23;;;9.20;86.40;;;;;;5048456;28;20797;-72
2020/12/13 06:56:46;;;;;;;42.83;26.50;;;9.20;87.90;;;;;;5048984;28;20390;-72
2020/12/13 06:59:12;;;;;;;43.22;25.70;;;9.10;89.20;;;;;;5035878;28;20423;-72
2020/12/13 07:01:43;;;;;;;46.63;25.87;;;9.10;88.70;;;;;;5029963;28;20493;-72
2020/12/13 07:04:31;;;;;;;42.70;25.15;;;9.00;89.00;;;;;;5048088;28;20407;-72
2020/12/13 07:07:18;;;;;;;40.93;25.77;;;9.10;88.00;;;;;;5047684;28;20524;-73
2020/12/13 07:09:44;;;;;;;43.70;24.20;;;9.00;87.20;;;;;;5033880;28;20410;-72
2020/12/13 07:12:10;;;;;;;39.90;23.10;;;8.90;89.70;;;;;;5028701;28;20856;-72
2020/12/13 07:14:38;;;;;;;43.27;23.37;;;8.90;88.10;;;;;;5028415;28;20503;-71
2020/12/13 07:19:32;;;;;;;39.35;22.00;;;8.90;87.10;;;;;;5033946;28;20405;-72
2020/12/13 07:22:05;;;;;;;37.80;22.25;;;8.90;86.20;;;;;;5032510;28;20847;-72
2020/12/13 07:24:32;;;;;;;38.67;22.20;;;8.80;86.30;;;;;;5032222;28;20390;-73
2020/12/13 07:26:58;;;;;;;37.28;20.88;;;8.80;86.40;;;;;;5032270;28;20387;-72
2020/12/13 07:29:24;;;;;;;34.03;20.48;;;8.80;85.30;;;;;;5032536;28;20748;-71
2020/12/13 07:31:51;;;;;;;40.75;20.75;;;8.90;85.90;;;;;;5052167;28;20852;-72
2020/12/13 07:34:17;;;;;;;33.55;20.48;;;8.80;86.20;;;;;;5051912;28;20865;-71
2020/12/13 07:36:43;;;;;;;37.58;20.80;;;8.80;86.50;;;;;;5052138;28;20400;-71
2020/12/13 07:39:13;;;;;;;34.78;20.88;;;8.80;85.60;;;;;;5044067;28;20500;-71
2020/12/13 07:41:40;;;;;;;42.65;20.15;;;8.80;85.60;;;;;;5052599;28;20399;-72
2020/12/13 07:44:07;;;;;;;37.20;20.55;;;8.80;86.20;;;;;;5048400;28;20400;-73
2020/12/13 07:46:34;;;;;;;42.03;20.63;;;8.80;86.60;;;;;;5052470;28;20385;-73
2020/12/13 07:49:11;;;;;;;37.00;21.15;;;8.80;87.60;;;;;;5042236;28;20406;-73
2020/12/13 07:51:41;;;;;;;40.25;21.60;;;8.70;87.60;;;;;;5032972;28;20403;-73
2020/12/13 07:54:23;;;;;;;32.17;20.55;;;8.80;86.50;;;;;;5032771;28;20455;-73
2020/12/13 07:56:50;;;;;;;37.13;20.92;;;8.80;85.30;;;;;;5032973;28;20752;-72
2020/12/13 07:59:21;;;;;;;37.53;19.83;;;8.70;86.20;;;;;;5040181;28;20468;-71
2020/12/13 08:01:49;;;;;;;36.22;20.20;;;8.80;85.00;;;;;;5032216;28;20381;-73
2020/12/13 08:04:16;;;;;;;36.38;18.90;;;8.70;85.30;;;;;;5031569;28;20389;-73
2020/12/13 08:06:42;;;;;;;29.73;18.23;;;8.80;82.30;;;;;;5032215;28;20383;-72
2020/12/13 08:09:13;;;;;;;33.25;17.13;;;8.80;80.90;;;;;;5032086;28;20427;-74
2020/12/13 08:11:39;;;;;;;23.40;16.27;;;8.90;78.60;;;;;;5039571;28;20409;-72
2020/12/13 08:14:06;;;;;;;27.58;15.88;;;8.90;79.00;;;;;;5051380;28;20392;-71
2020/12/13 08:16:33;;;;;;;32.03;15.60;;;8.90;77.30;;;;;;5051571;28;20414;-72
2020/12/13 08:19:25;;;;;;;30.75;15.85;;;8.90;76.50;;;;;;5042489;28;20540;-75
2020/12/13 08:22:02;;;;;;;28.30;15.60;;;9.00;77.50;;;;;;5029333;28;21518;-72
2020/12/13 08:24:29;;;;;;;31.85;14.20;;;9.00;75.90;;;;;;5031377;28;20393;-72
2020/12/13 08:26:59;;;;;;;23.50;13.80;;;9.10;74.80;;;;;;5049967;28;20394;-72
2020/12/13 08:29:26;;;;;;;28.38;14.30;;;9.00;73.30;;;;;;5040811;28;20437;-73
2020/12/13 08:31:53;;;;;;;23.35;14.57;;;9.10;73.60;;;;;;5030859;28;20387;-72
2020/12/13 08:34:24;;;;;;;26.60;14.57;;;9.00;75.30;;;;;;5034844;28;20430;-73
2020/12/13 08:36:54;;;;;;;26.13;13.55;;;9.10;73.00;;;;;;5051094;28;20700;-72
2020/12/13 08:39:32;;;;;;;27.88;13.25;;;9.10;72.40;;;;;;5045218;28;20488;-72
2020/12/13 08:42:03;;;;;;;22.08;12.20;;;9.10;72.00;;;;;;5051227;28;20389;-73
2020/12/13 08:44:37;;;;;;;27.38;13.70;;;9.10;70.10;;;;;;5050490;28;20401;-73
2020/12/13 08:47:08;;;;;;;31.73;13.82;;;9.00;71.70;;;;;;5035698;28;20414;-76
2020/12/13 08:49:36;;;;;;;20.13;12.35;;;9.00;72.70;;;;;;5031019;28;20387;-72
2020/12/13 08:52:16;;;;;;;24.73;12.88;;;9.00;72.60;;;;;;5036524;28;20801;-74
2020/12/13 08:54:47;;;;;;;26.98;14.10;;;8.90;74.30;;;;;;5031209;28;20851;-72
2020/12/13 08:57:12;;;;;;;24.33;12.90;;;9.00;75.50;;;;;;5042331;28;20799;-73
2020/12/13 08:59:38;;;;;;;20.77;12.60;;;9.10;72.00;;;;;;5038940;28;20420;-72
2020/12/13 09:02:04;;;;;;;24.87;13.10;;;9.20;71.20;;;;;;5044024;28;20474;-75
2020/12/13 09:04:31;;;;;;;22.67;12.80;;;9.20;70.80;;;;;;5050635;28;20420;-73
2020/12/13 09:07:02;;;;;;;22.98;11.95;;;9.10;70.20;;;;;;5049365;28;20385;-72
2020/12/13 09:09:29;;;;;;;25.23;11.68;;;9.10;69.60;;;;;;5038160;28;20452;-75
2020/12/13 09:11:55;;;;;;;21.42;12.70;;;9.20;68.30;;;;;;5032039;28;20392;-71
2020/12/13 09:14:32;;;;;;;27.37;12.20;;;9.20;69.90;;;;;;5031614;28;20391;-70
2020/12/13 09:16:59;;;;;;;23.42;13.75;;;9.20;70.70;;;;;;5042758;28;20396;-72
2020/12/13 09:19:25;;;;;;;25.33;13.95;;;9.20;69.00;;;;;;5033832;28;20811;-71
2020/12/13 09:21:57;;;;;;;24.40;12.90;;;9.20;69.00;;;;;;5033869;28;20537;-72
2020/12/13 09:24:28;;;;;;;23.33;12.73;;;9.20;68.30;;;;;;5050392;28;20386;-72
2020/12/13 09:27:03;;;;;;;25.40;13.75;;;9.40;66.90;;;;;;5046818;28;20391;-72
2020/12/13 09:29:30;;;;;;;24.70;12.75;;;9.40;66.30;;;;;;5050489;28;20412;-73
2020/12/13 09:31:56;;;;;;;27.05;12.90;;;9.40;64.00;;;;;;5032647;28;20444;-73
2020/12/13 09:34:22;;;;;;;30.95;16.02;;;9.40;65.40;;;;;;5031897;28;20389;-74
2020/12/13 09:39:23;;;;;;;30.48;16.95;;;9.40;66.50;;;;;;5133835;23;20434;-74
2020/12/13 09:41:49;;;;;;;31.10;13.20;;;9.50;67.10;;;;;;5021438;28;20813;-75
2020/12/13 09:44:15;;;;;;;29.83;15.98;;;9.50;65.40;;;;;;5086162;23;20501;-74
2020/12/13 09:46:40;;;;;;;26.48;12.50;;;9.60;65.30;;;;;;5068927;28;20756;-74
2020/12/13 09:49:06;;;;;;;25.58;12.93;;;9.70;62.70;;;;;;5070416;28;20391;-75
2020/12/13 09:51:31;;;;;;;23.90;12.88;;;9.70;63.40;;;;;;5060007;28;20505;-75
2020/12/13 09:53:57;;;;;;;24.63;12.15;;;9.70;61.80;;;;;;5046359;28;20885;-74
2020/12/13 09:56:22;;;;;;;28.77;14.95;;;9.70;60.30;;;;;;5037062;28;20766;-73
2020/12/13 09:58:48;;;;;;;27.33;13.55;;;9.70;60.70;;;;;;5048929;28;20445;-74
2020/12/13 10:01:15;;;;;;;20.43;11.73;;;9.60;61.90;;;;;;5048241;28;20932;-74
2020/12/13 10:03:52;;;;;;;25.52;13.35;;;9.60;63.00;;;;;;5049255;28;20800;-73
2020/12/13 10:09:05;;;;;;;20.50;11.65;;;9.60;62.90;;;;;;5050635;28;20417;-74
2020/12/13 10:11:32;;;;;;;23.50;13.18;;;9.60;62.50;;;;;;5049830;28;20412;-73
2020/12/13 10:13:58;;;;;;;24.70;12.43;;;9.60;61.70;;;;;;5039135;28;20406;-73
2020/12/13 10:16:25;;;;;;;20.52;11.23;;;9.70;61.90;;;;;;5036678;28;20402;-73
2020/12/13 10:18:50;;;;;;;24.10;11.98;;;9.80;60.40;;;;;;5049785;28;20888;-73
2020/12/13 10:21:28;;;;;;;26.38;14.80;;;9.80;61.40;;;;;;5050269;28;20397;-75
2020/12/13 10:23:54;;;;;;;26.77;13.38;;;9.80;61.20;;;;;;5047262;28;20397;-75
2020/12/13 10:26:25;;;;;;;26.42;14.20;;;9.80;60.90;;;;;;5045475;28;20390;-74
2020/12/13 10:28:52;;;;;;;26.50;14.52;;;9.80;59.50;;;;;;5039686;28;20907;-76
2020/12/13 10:31:19;;;;;;;24.47;12.37;;;9.90;60.00;;;;;;5039829;28;20413;-74
2020/12/13 10:33:45;;;;;;;37.13;18.90;;;9.90;60.80;;;;;;5048748;28;20747;-75
2020/12/13 10:36:12;;;;;;;18.70;12.13;;;9.90;61.40;;;;;;5053832;28;20389;-73
2020/12/13 10:38:39;;;;;;;23.42;11.90;;;9.90;59.20;;;;;;5052913;28;20886;-75
2020/12/13 10:41:06;;;;;;;20.13;11.35;;;9.90;59.30;;;;;;5052613;28;20408;-76
2020/12/13 10:43:32;;;;;;;28.00;11.73;;;9.90;57.70;;;;;;5046439;28;20393;-75
2020/12/13 10:45:58;;;;;;;24.77;12.40;;;10.00;57.80;;;;;;5023739;28;20425;-73
2020/12/13 10:48:24;;;;;;;25.17;14.33;;;10.00;58.30;;;;;;5038306;28;20403;-75
2020/12/13 10:50:49;;;;;;;23.30;12.10;;;10.10;55.90;;;;;;5044020;28;20777;-73
2020/12/13 10:53:15;;;;;;;19.98;11.30;;;10.20;55.70;;;;;;5048493;28;20827;-74
2020/12/13 10:55:40;;;;;;;23.60;12.70;;;10.10;55.20;;;;;;5034522;28;20600;-73
2020/12/13 10:58:06;;;;;;;23.40;10.97;;;10.10;56.00;;;;;;5050572;28;20385;-73
2020/12/13 11:00:31;;;;;;;26.33;11.77;;;10.10;55.20;;;;;;5050754;28;20410;-73
2020/12/13 11:02:57;;;;;;;19.80;11.83;;;10.20;54.50;;;;;;5052257;28;20932;-73
2020/12/13 11:05:22;;;;;;;21.90;11.48;;;10.20;54.20;;;;;;5051536;28;20395;-74
2020/12/13 11:07:48;;;;;;;19.10;11.02;;;10.20;54.00;;;;;;5041860;28;20398;-72
2020/12/13 11:10:14;;;;;;;19.27;11.32;;;10.40;53.30;;;;;;5051822;28;20812;-76
2020/12/13 11:12:40;;;;;;;22.00;10.73;;;10.40;53.20;;;;;;5050473;28;20401;-73
2020/12/13 11:15:05;;;;;;;18.20;10.23;;;10.50;53.10;;;;;;5048239;28;20393;-75
2020/12/13 11:17:31;;;;;;;16.10;9.60;;;10.50;51.20;;;;;;5040856;28;20399;-73
2020/12/13 11:19:56;;;;;;;19.87;10.03;;;10.50;51.20;;;;;;5049575;28;20405;-73
2020/12/13 11:22:22;;;;;;;18.20;8.97;;;10.40;50.90;;;;;;5058738;28;20930;-74
2020/12/13 11:24:47;;;;;;;19.00;10.10;;;10.60;49.60;;;;;;5059286;28;20770;-72
2020/12/13 11:27:13;;;;;;;18.20;10.30;;;10.40;50.90;;;;;;5057335;28;20389;-73
2020/12/13 11:29:38;;;;;;;15.85;9.57;;;10.30;51.90;;;;;;5058498;28;20405;-72
2020/12/13 11:32:05;;;;;;;17.37;8.80;;;10.30;52.50;;;;;;5035606;28;20389;-73
2020/12/13 11:34:30;;;;;;;13.15;8.32;;;10.40;49.30;;;;;;5053376;28;20461;-73
2020/12/13 11:36:56;;;;;;;14.45;8.02;;;10.50;49.50;;;;;;5052936;28;20437;-72
2020/12/13 11:39:22;;;;;;;15.33;8.97;;;10.50;49.10;;;;;;5054742;28;20404;-75
2020/12/13 11:41:47;;;;;;;14.13;8.30;;;10.50;47.00;;;;;;5055603;28;20381;-73
2020/12/13 11:44:13;;;;;;;14.97;9.53;;;10.50;47.60;;;;;;5055638;28;20388;-73
2020/12/13 11:46:38;;;;;;;14.73;8.30;;;10.40;48.90;;;;;;5055665;28;20428;-73
2020/12/13 11:49:04;;;;;;;13.68;7.90;;;10.30;48.20;;;;;;5055757;28;20818;-72
2020/12/13 11:51:29;;;;;;;9.40;7.05;;;10.30;49.30;;;;;;5055153;28;20443;-73
2020/12/13 11:53:55;;;;;;;14.40;7.50;;;10.30;48.70;;;;;;5055117;28;20378;-72
2020/12/13 11:56:21;;;;;;;10.47;6.70;;;10.50;46.90;;;;;;5054080;28;20873;-73
2020/12/13 11:58:47;;;;;;;10.77;6.30;;;10.40;45.40;;;;;;5054149;28;20507;-72
2020/12/13 12:01:12;;;;;;;14.30;7.00;;;10.20;44.60;;;;;;5054269;28;20421;-72
2020/12/13 12:03:38;;;;;;;13.10;7.10;;;10.00;46.90;;;;;;5037009;28;20476;-72
2020/12/13 12:06:07;;;;;;;9.10;6.23;;;9.80;49.30;;;;;;5054429;28;20385;-73
2020/12/13 12:08:33;;;;;;;10.00;6.32;;;9.70;47.40;;;;;;5054521;28;20742;-73
2020/12/13 12:10:58;;;;;;;16.25;7.00;;;9.70;47.50;;;;;;5052470;28;20405;-72
2020/12/13 12:13:24;;;;;;;10.25;5.78;;;9.70;48.20;;;;;;5051916;28;20532;-73
2020/12/13 12:15:50;;;;;;;9.85;5.20;;;9.70;47.60;;;;;;5044042;28;21288;-73
2020/12/13 12:18:15;;;;;;;9.88;5.15;;;9.70;46.60;;;;;;5052505;28;20425;-72
2020/12/13 12:20:41;;;;;;;11.75;5.65;;;9.70;44.90;;;;;;5051484;28;20405;-72
2020/12/13 12:23:07;;;;;;;15.45;7.40;;;9.80;45.00;;;;;;5052307;28;20393;-72
2020/12/13 12:25:36;;;;;;;12.27;6.03;;;10.00;45.80;;;;;;5052001;28;20401;-71
2020/12/13 12:28:02;;;;;;;9.52;5.82;;;10.20;43.90;;;;;;5051746;28;20393;-71
2020/12/13 12:30:28;;;;;;;7.80;4.70;;;10.30;44.60;;;;;;5051051;28;20417;-72
2020/12/13 12:32:54;;;;;;;7.47;5.15;;;10.50;43.10;;;;;;5051317;28;20455;-74
2020/12/13 12:35:19;;;;;;;12.07;5.10;;;10.70;42.80;;;;;;5051971;28;20390;-71
2020/12/13 12:37:45;;;;;;;7.80;4.60;;;10.70;41.90;;;;;;5050961;28;20409;-73
2020/12/13 12:40:10;;;;;;;10.73;5.20;;;10.70;40.60;;;;;;5045120;28;20492;-73
2020/12/13 12:42:36;;;;;;;9.97;4.80;;;10.70;40.50;;;;;;5052322;28;20446;-73
2020/12/13 12:45:02;;;;;;;7.10;4.90;;;10.50;38.20;;;;;;5052406;28;20973;-72
2020/12/13 12:47:28;;;;;;;10.30;5.70;;;10.50;39.80;;;;;;5051478;28;20397;-73
2020/12/13 12:49:53;;;;;;;6.65;4.85;;;10.50;40.90;;;;;;5050192;28;20916;-72
2020/12/13 12:52:19;;;;;;;8.35;4.43;;;10.50;39.30;;;;;;5051359;28;20866;-73
2020/12/13 12:54:44;;;;;;;9.07;4.77;;;10.50;41.50;;;;;;5051253;28;20443;-72
2020/12/13 12:57:10;;;;;;;10.25;5.15;;;10.50;41.20;;;;;;5051203;28;20836;-73
2020/12/13 13:00:23;;;;;;;7.75;4.65;;;10.50;40.40;;;;;;5050884;28;20401;-72